Briefing drone pour Saint-donat-sur-l'herbasse

Rechercher une autre localisation

Conditions de vol :


Nous sommes le : Lundi 28 septembre 2020
Il est 15:08 UTC (17:08 LT)

Lever de soleil : 05:08 UTC (07:08 LT)
Coucher de soleil : 17:52 UTC (19:52 LT)

Météo

L'essentiel des conditions de vol

VIGILANCE MÉTÉO FRANCE - Drôme (26)
Pas de vigilances particulieres
METAR de LFLU
LFLU 281500Z AUTO 02007KT 9999 FEW019 OVC039 14/11 Q1014

Date d'émission: 28/09/2020
Heure d'émission: 15:00 UTC
Vent: 020° pour 7 KT (13 km/h)
Visibilité horizontale: > 10 km
Plafond :
- Peu de nuages à 1900ft (579m)
- Couvert à 3900ft (1189m)
Température: 14 °C
Point de rosée: 11 °C
Humidité: 82%
Pression (QNH): 1014 hPa
Prévision 24h pour Valence (14 km)
Vent : 16° pour 5 KT (19 km/h)
Temperature Maxi: 17 °C
Temperature Min: 17 °C
Humidité : 60%
Condition : Couvert



Warning: count(): Parameter must be an array or an object that implements Countable in /homepages/6/d509196549/htdocs/droneoxygene/briefing.php on line 743
WEBCAM POUR SAINT-DONAT-SUR-L'HERBASSE

Réglementation

Voler en sécurité

CARTES AERONAUTIQUE 1/500.000
CARTES VAC (LFLU)
SUP AIP




Chargement des AIP...
NOTAM (SAINT-DONAT-SUR-L'HERBASSE + Terrain à proximité / FIR )




Chargement des NOTAMS...
CONTACT PREFECTURE 26
Drôme (26) : ddt-sdsr@drome.gouv.fr


Avertissement : Les données mises à disposition sont indicatives. Oxygène Drone ne pourra être tenu responsable de dégâts causés aux biens et aux personnes.